Time;durP1;ratioP1;P1;durP2;ratioP2;P2;SDS_P1;SDS_P2;PMS_P1;PMS_P2;Temp;Humidity;BMP_temperature;BMP_pressure;BME280_temperature;BME280_humidity;BME280_pressure;Samples;Min_cycle;Max_cycle;Signal;HPM_P1;HPM_P2
2022/01/23 00:00:51;;;;;;;22.55;8.80;;;9.90;99.90;;;;;;4803713;29;20490;-77
2022/01/23 00:03:19;;;;;;;22.83;8.25;;;10.30;99.90;;;;;;4803847;29;20413;-77
2022/01/23 00:05:47;;;;;;;21.67;7.80;;;9.50;99.90;;;;;;4803129;29;20130;-77
2022/01/23 00:08:15;;;;;;;26.45;7.88;;;10.20;99.90;;;;;;4803400;29;20504;-77
2022/01/23 00:10:42;;;;;;;23.38;7.75;;;9.90;99.90;;;;;;4804175;29;20046;-77
2022/01/23 00:13:21;;;;;;;24.13;8.18;;;9.80;99.90;;;;;;4803291;29;20059;-77
2022/01/23 00:18:31;;;;;;;26.70;8.18;;;9.70;99.90;;;;;;4803580;29;20579;-76
2022/01/23 00:20:57;;;;;;;20.83;7.43;;;10.10;99.90;;;;;;4803602;29;20233;-76
2022/01/23 00:31:41;;;;;;;20.95;8.00;;;10.10;99.90;;;;;;4803675;29;20523;-77
2022/01/23 00:34:07;;;;;;;20.70;7.72;;;9.90;99.90;;;;;;4803125;29;20519;-77
2022/01/23 00:36:35;;;;;;;22.48;8.45;;;10.60;99.90;;;;;;4802542;29;20055;-78
2022/01/23 00:39:00;;;;;;;18.85;7.82;;;9.80;99.90;;;;;;4803356;29;20146;-78
2022/01/23 00:41:26;;;;;;;27.05;8.63;;;11.10;99.90;;;;;;4803568;29;20540;-78
2022/01/23 00:43:54;;;;;;;18.27;7.57;;;8.00;99.90;;;;;;4782205;29;20437;-77
2022/01/23 00:46:24;;;;;;;20.80;8.15;;;9.40;99.90;;;;;;4808250;29;20471;-79
2022/01/23 00:51:30;;;;;;;25.00;9.00;;;11.10;99.90;;;;;;4802623;29;20059;-77
2022/01/23 00:53:57;;;;;;;29.35;9.23;;;9.30;99.90;;;;;;4797303;29;20137;-77
2022/01/23 00:56:23;;;;;;;28.30;9.40;;;10.00;99.90;;;;;;4802550;29;20501;-77
2022/01/23 00:58:49;;;;;;;35.25;9.02;;;10.70;99.90;;;;;;4801653;29;20303;-78
2022/01/23 01:01:15;;;;;;;23.88;9.55;;;10.40;99.90;;;;;;4803313;29;20047;-77
2022/01/23 01:03:41;;;;;;;24.05;9.15;;;;;;;;;;4803725;29;20047;-78
2022/01/23 01:06:07;;;;;;;29.65;9.13;;;10.10;99.90;;;;;;4806680;29;20846;-77
2022/01/23 01:08:35;;;;;;;26.58;10.25;;;9.80;99.90;;;;;;4806130;29;20446;-77
2022/01/23 01:11:42;;;;;;;32.75;10.57;;;8.50;99.90;;;;;;4805948;29;20054;-78
2022/01/23 01:35:23;;;;;;;31.85;10.60;;;7.80;99.90;;;;;;4805749;29;20146;-77
2022/01/23 01:37:50;;;;;;;35.53;10.45;;;9.90;99.90;;;;;;4773782;29;20065;-76
2022/01/23 01:40:16;;;;;;;38.78;10.68;;;9.80;99.90;;;;;;4805735;29;20131;-76
2022/01/23 01:42:43;;;;;;;30.45;11.23;;;9.80;99.90;;;;;;4806148;29;20063;-75
2022/01/23 01:45:09;;;;;;;29.98;11.38;;;8.60;99.90;;;;;;4805501;29;20136;-75
2022/01/23 01:47:35;;;;;;;28.90;10.80;;;9.80;99.90;;;;;;4790073;29;20063;-75
2022/01/23 01:50:00;;;;;;;45.40;11.52;;;10.00;99.90;;;;;;4805761;29;20047;-75
2022/01/23 01:52:26;;;;;;;34.70;11.10;;;9.70;99.90;;;;;;4805335;29;20047;-75
2022/01/23 01:55:00;;;;;;;26.95;10.52;;;10.40;99.90;;;;;;4806038;29;20051;-75
2022/01/23 01:57:31;;;;;;;30.75;10.77;;;10.60;99.90;;;;;;4806109;29;20051;-75
2022/01/23 02:00:25;;;;;;;28.50;10.95;;;9.60;99.90;;;;;;4804194;29;20095;-75
2022/01/23 02:08:24;;;;;;;24.45;10.65;;;9.90;99.90;;;;;;4804170;29;20066;-75
2022/01/23 02:10:55;;;;;;;28.77;10.25;;;10.80;99.90;;;;;;4805084;29;20061;-75
2022/01/23 02:13:28;;;;;;;28.42;10.07;;;9.80;99.90;;;;;;4804638;29;20476;-75
2022/01/23 02:22:29;;;;;;;28.08;10.43;;;9.80;99.90;;;;;;4805353;29;20065;-76
2022/01/23 02:56:46;;;;;;;31.20;11.38;;;9.80;99.90;;;;;;4805069;29;20055;-76
2022/01/23 02:59:20;;;;;;;25.92;10.82;;;8.90;99.90;;;;;;4802822;29;20206;-76
2022/01/23 03:02:00;;;;;;;28.88;11.30;;;9.90;99.90;;;;;;4805194;29;20065;-76
2022/01/23 03:04:27;;;;;;;29.38;12.65;;;9.60;99.90;;;;;;4804986;29;20051;-75
2022/01/23 03:30:25;;;;;;;37.80;12.88;;;9.50;99.90;;;;;;4802978;29;20059;-76
2022/01/23 03:32:52;;;;;;;29.15;11.77;;;9.80;99.90;;;;;;4803051;29;20059;-77
2022/01/23 03:35:19;;;;;;;42.25;13.35;;;7.60;99.90;;;;;;4803938;29;20046;-76
2022/01/23 03:37:46;;;;;;;38.27;12.33;;;9.80;99.90;;;;;;4803830;29;20122;-76
2022/01/23 03:40:12;;;;;;;29.48;11.93;;;9.70;99.90;;;;;;4798334;29;20042;-77
2022/01/23 03:42:41;;;;;;;27.73;11.75;;;9.80;99.90;;;;;;4804773;29;20416;-76
2022/01/23 03:50:35;;;;;;;39.88;13.10;;;9.80;99.90;;;;;;4803021;29;20104;-76
2022/01/23 03:53:01;;;;;;;31.80;12.70;;;9.70;99.90;;;;;;4801550;29;20047;-77
2022/01/23 03:55:27;;;;;;;32.42;12.45;;;9.60;99.90;;;;;;4803551;29;20141;-75
2022/01/23 03:57:52;;;;;;;33.65;12.70;;;9.80;99.90;;;;;;4803973;29;20074;-76
2022/01/23 04:00:18;;;;;;;48.50;13.20;;;9.60;99.90;;;;;;4801935;29;20111;-76
2022/01/23 04:02:44;;;;;;;37.08;12.75;;;11.10;99.90;;;;;;4803907;29;20050;-77
2022/01/23 04:05:10;;;;;;;29.17;12.63;;;7.70;99.90;;;;;;4787155;29;20043;-76
2022/01/23 04:07:36;;;;;;;45.90;13.38;;;9.70;99.90;;;;;;4803684;29;20061;-76
2022/01/23 04:10:03;;;;;;;29.70;11.88;;;10.30;99.90;;;;;;4803590;29;20050;-76
2022/01/23 04:12:50;;;;;;;38.27;12.53;;;9.40;99.90;;;;;;4803396;29;20078;-76
2022/01/23 04:20:48;;;;;;;36.38;13.63;;;10.10;99.90;;;;;;4803573;29;20047;-76
2022/01/23 05:06:49;;;;;;;32.13;13.05;;;9.70;99.90;;;;;;4804218;29;20084;-76
2022/01/23 05:09:15;;;;;;;38.17;14.90;;;9.50;99.90;;;;;;4806553;29;20381;-76
2022/01/23 05:11:50;;;;;;;45.63;14.43;;;9.90;99.90;;;;;;4806829;29;20062;-76
2022/01/23 05:14:21;;;;;;;47.53;15.60;;;9.30;99.90;;;;;;4805782;29;20126;-77
2022/01/23 05:16:47;;;;;;;50.65;15.88;;;10.50;99.90;;;;;;4806707;29;20051;-76
2022/01/23 05:19:12;;;;;;;43.72;15.52;;;9.80;99.90;;;;;;4806005;29;20176;-76
2022/01/23 05:22:02;;;;;;;57.22;16.50;;;9.60;99.90;;;;;;4806385;29;20078;-76
2022/01/23 05:24:34;;;;;;;45.90;15.60;;;11.50;99.90;;;;;;4788264;29;20204;-76
2022/01/23 05:27:06;;;;;;;49.63;15.38;;;9.70;99.90;;;;;;4806571;29;20134;-77
2022/01/23 05:29:32;;;;;;;46.38;14.73;;;9.70;99.90;;;;;;4789661;29;20130;-75
2022/01/23 05:31:58;;;;;;;41.90;14.60;;;;;;;;;;4806828;29;20061;-76
2022/01/23 05:34:25;;;;;;;45.05;15.00;;;9.90;99.90;;;;;;4795066;29;20054;-75
2022/01/23 05:36:51;;;;;;;39.60;15.05;;;11.50;99.90;;;;;;4805757;29;20496;-75
2022/01/23 05:39:21;;;;;;;53.80;14.93;;;9.70;99.90;;;;;;4805850;29;20151;-76
2022/01/23 05:41:47;;;;;;;49.08;13.70;;;9.80;99.90;;;;;;4806032;29;20465;-76
2022/01/23 05:44:13;;;;;;;39.05;13.90;;;9.70;99.90;;;;;;4805298;29;20143;-76
2022/01/23 05:46:39;;;;;;;39.60;13.75;;;9.30;99.90;;;;;;4806098;29;20523;-77
2022/01/23 05:49:05;;;;;;;41.47;13.88;;;10.10;99.90;;;;;;4805625;29;20447;-75
2022/01/23 05:51:31;;;;;;;59.75;15.88;;;9.70;99.90;;;;;;4805284;29;20098;-75
2022/01/23 05:53:57;;;;;;;45.70;14.82;;;10.30;99.90;;;;;;4805644;29;20074;-76
2022/01/23 05:56:23;;;;;;;46.95;15.05;;;9.90;99.90;;;;;;4805458;29;20046;-76
2022/01/23 05:58:48;;;;;;;62.15;15.45;;;9.60;99.90;;;;;;4805278;29;20069;-76
2022/01/23 06:01:14;;;;;;;33.15;13.60;;;9.50;99.90;;;;;;4804531;29;20099;-75
2022/01/23 06:03:40;;;;;;;45.05;14.73;;;9.60;99.90;;;;;;4804006;29;20042;-76
2022/01/23 06:06:05;;;;;;;39.78;13.60;;;11.20;99.90;;;;;;4799748;29;20069;-78
2022/01/23 06:08:32;;;;;;;54.33;15.48;;;9.60;99.90;;;;;;4802734;29;20327;-76
2022/01/23 06:10:58;;;;;;;37.00;14.20;;;9.60;99.90;;;;;;4805719;29;20138;-75
2022/01/23 06:13:26;;;;;;;49.83;13.90;;;9.60;99.90;;;;;;4793249;29;20493;-76
2022/01/23 06:15:52;;;;;;;;;;;10.00;99.90;;;;;;4805985;29;20188;-75
2022/01/23 06:18:18;;;;;;;35.22;13.82;;;;;;;;;;4805418;29;19936;-76
2022/01/23 06:20:44;;;;;;;33.70;13.20;;;9.60;99.90;;;;;;4805497;29;20058;-75
2022/01/23 06:23:10;;;;;;;42.10;15.10;;;10.40;99.90;;;;;;4796136;29;20050;-76
2022/01/23 06:25:37;;;;;;;42.05;14.00;;;10.10;99.90;;;;;;4805084;29;20566;-76
2022/01/23 06:28:06;;;;;;;39.22;14.95;;;9.60;99.90;;;;;;4805329;29;20238;-76
2022/01/23 06:30:32;;;;;;;41.35;13.57;;;9.80;99.90;;;;;;4804851;29;20621;-76
2022/01/23 06:32:58;;;;;;;41.75;13.93;;;;;;;;;;4805569;29;20134;-76
2022/01/23 06:35:24;;;;;;;37.22;13.50;;;9.80;99.90;;;;;;4804773;29;20122;-75
2022/01/23 06:37:50;;;;;;;41.95;13.73;;;9.60;99.90;;;;;;4804824;29;20529;-75
2022/01/23 06:40:16;;;;;;;45.30;13.77;;;9.60;99.90;;;;;;4805005;29;20087;-76
2022/01/23 06:42:41;;;;;;;46.42;14.35;;;9.60;99.90;;;;;;4789186;29;20059;-78
2022/01/23 06:45:07;;;;;;;33.00;11.98;;;9.50;99.90;;;;;;4804330;29;20055;-75
2022/01/23 06:47:33;;;;;;;37.40;12.40;;;10.00;99.90;;;;;;4804770;29;20090;-75
2022/01/23 06:49:59;;;;;;;34.40;13.32;;;10.40;99.90;;;;;;4804710;29;20054;-75
2022/01/23 06:52:24;;;;;;;31.90;13.30;;;10.80;99.90;;;;;;4804248;29;20083;-75
2022/01/23 06:54:50;;;;;;;29.90;12.23;;;9.60;99.90;;;;;;4804775;29;20389;-75
2022/01/23 06:57:16;;;;;;;43.60;13.63;;;;;;;;;;4804470;29;20106;-81
2022/01/23 06:59:42;;;;;;;34.17;11.48;;;9.60;99.90;;;;;;4804623;29;20150;-75
2022/01/23 07:02:08;;;;;;;46.75;12.52;;;11.00;99.90;;;;;;4803475;29;20527;-76
2022/01/23 07:04:35;;;;;;;34.85;13.00;;;9.30;99.90;;;;;;4802787;29;20140;-75
2022/01/23 07:07:01;;;;;;;30.73;12.10;;;;;;;;;;4801406;29;20042;-77
2022/01/23 07:09:26;;;;;;;38.97;12.25;;;9.60;99.90;;;;;;4785201;29;20047;-76
2022/01/23 07:11:53;;;;;;;33.60;12.50;;;10.10;99.90;;;;;;4804204;29;20394;-76
2022/01/23 07:14:18;;;;;;;33.03;12.45;;;9.20;99.90;;;;;;4803032;29;20129;-76
2022/01/23 07:16:44;;;;;;;38.70;13.32;;;11.00;99.90;;;;;;4786798;29;20464;-75
2022/01/23 07:19:10;;;;;;;38.05;12.93;;;11.40;99.90;;;;;;4802664;29;20039;-77
2022/01/23 07:21:36;;;;;;;33.95;12.60;;;9.90;99.90;;;;;;4801044;29;20133;-73
2022/01/23 07:24:02;;;;;;;35.95;12.85;;;10.80;99.90;;;;;;4801893;29;20058;-73
2022/01/23 07:26:28;;;;;;;39.20;13.88;;;9.90;99.90;;;;;;4797643;29;20201;-73
2022/01/23 07:28:56;;;;;;;44.58;13.15;;;9.70;99.90;;;;;;4795135;29;20149;-75
2022/01/23 07:34:02;;;;;;;39.95;13.55;;;10.10;99.90;;;;;;4786724;29;20102;-73
2022/01/23 07:36:28;;;;;;;42.78;14.45;;;9.60;99.90;;;;;;4799645;29;20055;-74
2022/01/23 07:38:54;;;;;;;40.17;15.02;;;10.20;99.90;;;;;;4802408;29;20103;-72
2022/01/23 07:41:20;;;;;;;41.80;13.30;;;9.60;99.90;;;;;;4804155;29;20369;-73
2022/01/23 07:43:46;;;;;;;51.65;14.43;;;9.70;99.90;;;;;;4802419;29;20493;-76
2022/01/23 07:46:11;;;;;;;37.03;13.93;;;11.00;99.90;;;;;;4802364;29;20057;-73
2022/01/23 07:48:37;;;;;;;50.67;13.93;;;10.00;99.90;;;;;;4809823;29;20051;-73
2022/01/23 07:51:03;;;;;;;32.75;13.38;;;9.70;99.90;;;;;;4803425;29;20071;-74
2022/01/23 07:53:29;;;;;;;48.97;14.50;;;9.20;99.90;;;;;;4802967;29;20081;-73
2022/01/23 07:55:55;;;;;;;45.50;15.32;;;9.90;99.90;;;;;;4802855;29;20053;-73
2022/01/23 07:58:20;;;;;;;58.28;14.80;;;9.70;99.90;;;;;;4811553;29;20348;-73
2022/01/23 08:00:47;;;;;;;45.03;16.50;;;10.40;99.90;;;;;;4798935;29;20347;-73
2022/01/23 08:03:14;;;;;;;40.75;15.82;;;9.60;99.90;;;;;;4804018;29;20131;-74
2022/01/23 08:05:40;;;;;;;49.53;17.15;;;10.00;99.90;;;;;;4803586;29;20073;-73
2022/01/23 08:08:06;;;;;;;44.67;16.88;;;9.60;99.90;;;;;;4804659;29;20050;-73
2022/01/23 08:10:32;;;;;;;47.03;18.25;;;9.50;99.90;;;;;;4802471;29;20528;-73
2022/01/23 08:12:58;;;;;;;49.20;16.75;;;9.80;99.90;;;;;;4802937;29;20161;-74
2022/01/23 08:15:24;;;;;;;50.38;19.08;;;;;;;;;;4802822;29;20451;-80
2022/01/23 08:17:50;;;;;;;47.78;18.15;;;8.60;99.90;;;;;;4803347;29;20166;-75
2022/01/23 08:20:16;;;;;;;66.93;20.70;;;9.70;99.90;;;;;;4804267;29;20133;-73
2022/01/23 08:22:42;;;;;;;53.15;20.38;;;9.60;99.90;;;;;;4788104;29;20050;-73
2022/01/23 08:25:08;;;;;;;49.65;17.98;;;10.00;99.90;;;;;;4803312;29;20066;-73
2022/01/23 08:27:34;;;;;;;51.72;19.45;;;11.60;99.90;;;;;;4803536;29;20133;-73
2022/01/23 08:30:01;;;;;;;40.30;17.80;;;10.00;99.90;;;;;;4803290;29;20058;-73
2022/01/23 08:32:27;;;;;;;46.83;17.67;;;9.80;99.90;;;;;;4802205;29;20051;-73
2022/01/23 08:34:53;;;;;;;42.85;18.48;;;10.30;99.90;;;;;;4803408;29;20054;-73
2022/01/23 08:37:19;;;;;;;45.53;16.92;;;10.00;99.90;;;;;;4802808;29;20353;-73
2022/01/23 08:39:45;;;;;;;41.20;17.02;;;9.40;99.90;;;;;;4806067;29;20489;-74
2022/01/23 08:42:16;;;;;;;47.15;17.90;;;8.20;99.90;;;;;;4790762;29;20121;-73
2022/01/23 08:44:43;;;;;;;42.63;16.38;;;10.10;99.90;;;;;;4801807;29;20051;-73
2022/01/23 08:47:09;;;;;;;42.22;16.98;;;9.90;99.90;;;;;;4803097;29;20494;-73
2022/01/23 08:49:43;;;;;;;36.03;17.02;;;12.40;99.90;;;;;;4800579;29;20120;-73
2022/01/23 08:52:09;;;;;;;42.10;16.50;;;9.80;99.90;;;;;;4801309;29;20050;-74
2022/01/23 08:54:35;;;;;;;35.38;15.65;;;10.00;99.90;;;;;;4801573;29;20523;-73
2022/01/23 08:57:01;;;;;;;37.92;15.57;;;10.30;99.90;;;;;;4802652;29;20043;-73
2022/01/23 08:59:27;;;;;;;31.38;14.95;;;;;;;;;;4803259;29;20043;-80
2022/01/23 09:01:52;;;;;;;33.97;15.00;;;10.00;99.90;;;;;;4802171;29;20120;-74
2022/01/23 09:04:18;;;;;;;38.65;14.55;;;10.60;99.90;;;;;;4800167;29;20143;-74
2022/01/23 09:06:45;;;;;;;36.53;15.75;;;10.40;99.90;;;;;;4804048;29;20559;-73
2022/01/23 09:09:15;;;;;;;37.17;14.35;;;10.20;99.90;;;;;;4764259;29;20094;-73
2022/01/23 09:11:54;;;;;;;34.17;15.20;;;10.20;99.90;;;;;;4802193;29;20062;-74
2022/01/23 09:14:20;;;;;;;31.05;15.13;;;10.20;99.90;;;;;;4808352;29;20042;-74
2022/01/23 09:16:48;;;;;;;32.45;14.27;;;11.50;99.90;;;;;;4802203;29;20050;-74
2022/01/23 09:19:17;;;;;;;28.05;14.25;;;10.10;99.90;;;;;;4793394;29;20043;-74
2022/01/23 09:21:43;;;;;;;32.92;13.82;;;9.30;99.90;;;;;;4801016;29;20077;-74
2022/01/23 09:24:09;;;;;;;28.58;12.48;;;10.40;99.90;;;;;;4801038;29;20047;-74
2022/01/23 09:26:37;;;;;;;25.40;11.65;;;10.10;99.90;;;;;;4803763;29;20085;-75
2022/01/23 09:29:18;;;;;;;25.65;10.93;;;10.10;99.90;;;;;;4804364;29;20133;-74
2022/01/23 09:31:50;;;;;;;27.77;11.32;;;10.00;99.90;;;;;;4805913;29;20061;-74
2022/01/23 09:34:21;;;;;;;25.55;11.35;;;11.90;99.90;;;;;;4806378;29;20066;-76
2022/01/23 09:36:48;;;;;;;30.13;11.57;;;10.80;99.90;;;;;;4804269;29;20066;-74
2022/01/23 09:39:15;;;;;;;24.63;10.65;;;10.30;99.90;;;;;;4783209;29;20420;-74
2022/01/23 09:42:20;;;;;;;24.92;11.90;;;10.30;99.90;;;;;;4802381;29;20121;-74
2022/01/23 09:44:51;;;;;;;20.27;10.13;;;10.80;99.90;;;;;;4787820;29;20063;-74
2022/01/23 09:47:21;;;;;;;24.80;10.60;;;10.40;99.90;;;;;;4805738;29;20065;-75
2022/01/23 09:49:49;;;;;;;16.77;9.18;;;11.90;99.90;;;;;;4793430;29;20069;-76
2022/01/23 09:52:16;;;;;;;16.65;9.70;;;10.50;99.90;;;;;;4805966;29;20223;-74
2022/01/23 09:54:45;;;;;;;19.98;9.38;;;10.50;99.90;;;;;;4805770;29;20051;-74
2022/01/23 09:57:12;;;;;;;16.67;9.38;;;10.50;99.90;;;;;;4805872;29;20112;-74
2022/01/23 09:59:39;;;;;;;18.50;9.52;;;10.50;99.90;;;;;;4804366;29;20515;-74
2022/01/23 10:02:05;;;;;;;19.40;9.23;;;10.60;99.90;;;;;;4804900;29;20112;-74
2022/01/23 10:04:31;;;;;;;15.55;8.75;;;;;;;;;;4789572;29;20684;-81
2022/01/23 10:06:57;;;;;;;13.82;8.43;;;10.50;99.90;;;;;;4805542;29;20060;-76
2022/01/23 10:09:25;;;;;;;18.95;8.20;;;12.20;99.90;;;;;;4805534;29;20481;-74
2022/01/23 10:11:51;;;;;;;;;;;10.60;99.90;;;;;;4788727;29;20078;-74
2022/01/23 10:14:18;;;;;;;20.98;8.35;;;10.60;99.90;;;;;;4801206;29;19941;-74
2022/01/23 10:16:46;;;;;;;17.55;7.85;;;9.70;99.90;;;;;;4788315;29;20055;-74
2022/01/23 10:19:12;;;;;;;15.75;8.40;;;11.10;99.90;;;;;;4805517;29;20062;-74
2022/01/23 10:21:39;;;;;;;16.48;7.80;;;10.90;99.90;;;;;;4805072;29;20338;-74
2022/01/23 10:24:07;;;;;;;14.27;7.70;;;10.60;99.90;;;;;;4805462;29;20161;-74
2022/01/23 10:26:52;;;;;;;;;;;10.60;99.90;;;;;;4805571;29;20521;-74
2022/01/23 10:29:19;;;;;;;15.88;6.85;;;10.70;99.90;;;;;;4805396;29;19943;-74
2022/01/23 10:32:05;;;;;;;13.43;7.10;;;11.90;99.90;;;;;;4804254;29;20105;-75
2022/01/23 10:34:49;;;;;;;15.43;7.30;;;10.70;99.90;;;;;;4804856;29;20047;-74
2022/01/23 10:37:28;;;;;;;17.23;6.05;;;10.80;99.90;;;;;;4803602;29;20464;-75
2022/01/23 10:39:56;;;;;;;11.27;5.00;;;11.00;99.90;;;;;;4802902;29;20929;-76
2022/01/23 10:47:59;;;;;;;12.32;5.07;;;11.80;99.90;;;;;;4804938;29;20063;-75
2022/01/23 10:50:25;;;;;;;11.10;4.57;;;10.90;99.90;;;;;;4810745;29;20050;-75
2022/01/23 10:52:53;;;;;;;9.32;4.40;;;10.90;99.90;;;;;;4808382;29;20079;-75
2022/01/23 10:55:35;;;;;;;13.60;4.13;;;11.00;99.90;;;;;;4809881;29;20043;-76
2022/01/23 10:58:06;;;;;;;11.10;4.35;;;10.90;99.90;;;;;;4787646;29;20058;-76
2022/01/23 11:00:37;;;;;;;9.75;3.28;;;11.40;99.90;;;;;;4806601;29;20430;-77
2022/01/23 11:03:22;;;;;;;8.38;3.10;;;10.80;99.90;;;;;;4792942;29;20145;-74
2022/01/23 11:05:49;;;;;;;12.82;4.07;;;11.00;99.90;;;;;;4789695;29;20473;-75
2022/01/23 11:08:33;;;;;;;8.70;2.60;;;11.20;99.90;;;;;;4793242;29;20054;-74
2022/01/23 11:11:01;;;;;;;7.22;2.90;;;10.90;99.90;;;;;;4797901;29;20340;-74
2022/01/23 11:19:27;;;;;;;4.22;1.92;;;11.00;99.90;;;;;;4802697;29;20063;-75
2022/01/23 11:21:54;;;;;;;5.07;2.20;;;10.90;99.90;;;;;;4800226;29;20111;-75
2022/01/23 11:24:20;;;;;;;8.18;2.17;;;10.90;99.90;;;;;;4805074;29;20050;-75
2022/01/23 11:26:46;;;;;;;4.53;1.63;;;12.70;99.90;;;;;;4803624;29;20063;-74
2022/01/23 11:29:14;;;;;;;6.43;1.90;;;10.80;99.90;;;;;;4803777;29;20180;-75
2022/01/23 11:31:42;;;;;;;4.55;1.80;;;11.00;99.90;;;;;;4803932;29;20050;-82
2022/01/23 11:34:09;;;;;;;5.57;1.92;;;11.40;99.90;;;;;;4804690;29;20073;-76
2022/01/23 11:36:35;;;;;;;6.05;2.15;;;10.80;99.90;;;;;;4804140;29;20097;-74
2022/01/23 11:39:10;;;;;;;6.07;1.90;;;;;;;;;;4803777;29;20497;-74
2022/01/23 11:53:47;;;;;;;6.38;2.30;;;10.70;99.90;;;;;;4799882;29;20058;-76
2022/01/23 11:56:24;;;;;;;9.32;2.63;;;10.80;99.90;;;;;;4803993;29;20155;-75
2022/01/23 11:59:18;;;;;;;10.45;2.90;;;10.80;99.90;;;;;;4802965;29;20082;-76
2022/01/23 12:01:46;;;;;;;5.68;2.30;;;10.80;99.90;;;;;;4796448;29;20061;-80
2022/01/23 12:04:20;;;;;;;5.35;2.25;;;11.60;99.90;;;;;;4791036;29;20054;-75
2022/01/23 12:07:08;;;;;;;11.38;2.88;;;11.20;99.90;;;;;;4803316;29;20058;-77
2022/01/23 12:09:34;;;;;;;8.60;3.00;;;10.80;99.90;;;;;;4803341;29;20508;-76
2022/01/23 12:12:21;;;;;;;9.85;2.92;;;10.70;99.90;;;;;;4802886;29;20051;-76
2022/01/23 12:17:20;;;;;;;7.78;3.08;;;10.70;99.90;;;;;;4803853;29;20481;-76
2022/01/23 12:19:47;;;;;;;11.18;3.67;;;10.70;99.90;;;;;;4803371;29;20111;-77
2022/01/23 12:22:36;;;;;;;8.98;3.20;;;10.70;99.90;;;;;;4806741;29;20042;-79
2022/01/23 12:25:07;;;;;;;9.85;4.00;;;9.60;99.90;;;;;;4803774;29;20050;-76
2022/01/23 12:27:33;;;;;;;10.02;4.57;;;10.80;99.90;;;;;;4804098;29;20065;-76
2022/01/23 12:30:28;;;;;;;14.30;4.40;;;10.80;99.90;;;;;;4802670;29;20069;-76
2022/01/23 12:33:10;;;;;;;8.85;4.07;;;10.70;99.90;;;;;;4801331;29;20107;-77
2022/01/23 12:35:41;;;;;;;9.70;4.43;;;10.60;99.90;;;;;;4804109;29;20059;-76
2022/01/23 12:38:13;;;;;;;9.90;4.35;;;11.00;99.90;;;;;;4802726;29;20062;-78
2022/01/23 12:40:46;;;;;;;12.02;5.10;;;10.80;99.90;;;;;;4803535;29;20293;-77
2022/01/23 12:43:26;;;;;;;11.25;4.90;;;10.70;99.90;;;;;;4787724;29;20122;-78
2022/01/23 12:45:56;;;;;;;11.25;4.65;;;10.80;99.90;;;;;;4803079;29;20074;-76
2022/01/23 12:48:25;;;;;;;13.50;4.70;;;10.80;99.90;;;;;;4787603;29;20058;-76
2022/01/23 12:51:02;;;;;;;11.70;5.00;;;10.90;99.90;;;;;;4802900;29;20138;-76
2022/01/23 12:53:58;;;;;;;13.63;4.95;;;10.90;99.90;;;;;;4801972;29;20047;-77
2022/01/23 12:56:24;;;;;;;14.05;5.72;;;;;;;;;;4787658;29;20050;-80
2022/01/23 12:58:54;;;;;;;13.15;5.15;;;10.90;99.90;;;;;;4802220;29;20168;-77
2022/01/23 13:01:23;;;;;;;10.65;5.20;;;11.00;99.90;;;;;;4807047;29;20055;-77
2022/01/23 13:03:52;;;;;;;9.90;4.85;;;11.50;99.90;;;;;;4806627;29;20105;-77
2022/01/23 13:06:41;;;;;;;10.02;4.38;;;12.60;99.90;;;;;;4807323;29;20392;-76
2022/01/23 13:09:38;;;;;;;8.65;3.80;;;10.30;99.90;;;;;;4805758;29;20125;-76
2022/01/23 13:32:07;;;;;;;5.78;2.40;;;10.70;99.90;;;;;;4805940;29;20055;-77
2022/01/23 13:34:37;;;;;;;9.63;2.80;;;10.80;99.90;;;;;;4805179;29;20042;-80
2022/01/23 13:37:09;;;;;;;6.63;2.53;;;10.90;99.90;;;;;;4804155;29;20511;-75
2022/01/23 13:39:47;;;;;;;11.95;2.60;;;10.80;99.90;;;;;;4820184;29;20068;-79
2022/01/23 13:59:35;;;;;;;6.53;2.30;;;10.90;99.90;;;;;;4804231;29;20090;-77
2022/01/23 14:02:18;;;;;;;10.52;2.30;;;10.80;99.90;;;;;;4804368;29;20066;-76
2022/01/23 14:05:05;;;;;;;9.43;2.50;;;10.80;99.90;;;;;;4804478;29;20058;-76
2022/01/23 14:07:32;;;;;;;5.38;2.20;;;10.80;99.90;;;;;;4804981;29;20138;-77
2022/01/23 14:10:08;;;;;;;6.25;2.33;;;11.30;99.90;;;;;;4804753;29;20051;-76
2022/01/23 14:12:37;;;;;;;7.93;2.70;;;10.90;99.90;;;;;;4806241;29;20121;-76
2022/01/23 14:15:08;;;;;;;5.85;2.28;;;10.80;99.90;;;;;;4805451;29;20501;-76
2022/01/23 14:17:39;;;;;;;5.40;1.83;;;10.70;99.90;;;;;;4803768;29;20086;-77
2022/01/23 14:20:16;;;;;;;8.25;2.50;;;10.80;99.90;;;;;;4804629;29;20078;-77
2022/01/23 14:22:47;;;;;;;5.85;2.03;;;10.80;99.90;;;;;;4804455;29;20054;-77
2022/01/23 14:25:20;;;;;;;8.48;2.33;;;10.80;99.90;;;;;;4804597;29;20049;-78
2022/01/23 14:27:59;;;;;;;7.38;2.53;;;10.80;99.90;;;;;;4810698;29;20043;-77
2022/01/23 14:30:27;;;;;;;6.72;2.08;;;10.90;99.90;;;;;;4804685;29;20485;-77
2022/01/23 14:32:54;;;;;;;6.38;2.30;;;10.90;99.90;;;;;;4805175;29;20501;-77
2022/01/23 14:35:28;;;;;;;6.88;2.30;;;10.80;99.90;;;;;;4789966;29;20058;-78
2022/01/23 14:38:08;;;;;;;10.95;2.50;;;10.80;99.90;;;;;;4804339;29;20111;-76
2022/01/23 14:40:34;;;;;;;8.27;3.58;;;10.80;99.90;;;;;;4805586;29;20054;-77
2022/01/23 14:43:12;;;;;;;10.35;4.07;;;10.80;99.90;;;;;;4788300;29;20417;-77
2022/01/23 14:45:46;;;;;;;11.85;2.78;;;10.80;99.90;;;;;;4814684;29;20050;-78
2022/01/23 14:48:14;;;;;;;10.70;3.47;;;9.90;99.90;;;;;;4794622;29;20501;-78
2022/01/23 14:50:43;;;;;;;7.70;2.80;;;10.70;99.90;;;;;;4805030;29;20051;-76
2022/01/23 14:53:18;;;;;;;10.13;4.10;;;10.70;99.90;;;;;;4804012;29;20046;-77
2022/01/23 14:55:48;;;;;;;8.63;3.03;;;10.70;99.90;;;;;;4807660;29;20077;-77
2022/01/23 14:58:19;;;;;;;8.38;3.33;;;10.70;99.90;;;;;;4804306;29;20078;-78
2022/01/23 15:00:45;;;;;;;8.27;2.90;;;10.70;99.90;;;;;;4817307;29;20042;-77
2022/01/23 15:03:10;;;;;;;8.77;2.88;;;10.30;99.90;;;;;;4804342;29;20126;-77
2022/01/23 15:05:38;;;;;;;10.35;2.80;;;10.60;99.90;;;;;;4804595;29;20145;-77
2022/01/23 15:08:07;;;;;;;12.52;3.17;;;10.60;99.90;;;;;;4807831;29;20450;-77
2022/01/23 15:10:37;;;;;;;8.73;3.10;;;10.20;99.90;;;;;;4790169;29;20042;-78
2022/01/23 15:13:04;;;;;;;8.70;3.47;;;10.00;99.90;;;;;;4805823;29;20047;-77
2022/01/23 15:15:30;;;;;;;7.88;3.17;;;10.10;99.90;;;;;;4804531;29;20496;-78
2022/01/23 15:17:56;;;;;;;8.00;3.75;;;10.00;99.90;;;;;;4799345;29;20078;-77
2022/01/23 15:20:22;;;;;;;9.63;3.10;;;10.10;99.90;;;;;;4803616;29;20443;-77
2022/01/23 15:22:51;;;;;;;9.85;2.95;;;10.00;99.90;;;;;;4807633;29;20188;-78
2022/01/23 15:25:18;;;;;;;8.48;3.25;;;10.20;99.90;;;;;;4802761;29;20154;-78
2022/01/23 15:27:46;;;;;;;9.50;3.30;;;9.90;99.90;;;;;;4803497;29;20228;-78
2022/01/23 15:30:16;;;;;;;8.05;3.15;;;9.90;99.90;;;;;;4802197;29;20035;-78
2022/01/23 15:32:44;;;;;;;7.55;3.10;;;10.00;99.90;;;;;;4806570;29;20380;-78
2022/01/23 15:35:10;;;;;;;;;;;9.90;99.90;;;;;;4797748;29;20092;-78
2022/01/23 15:37:37;;;;;;;8.10;3.38;;;9.90;99.90;;;;;;4814193;29;19973;-79
2022/01/23 15:40:04;;;;;;;8.40;3.05;;;10.00;99.90;;;;;;4803971;29;20054;-77
2022/01/23 15:42:30;;;;;;;11.63;3.50;;;9.90;99.90;;;;;;4805056;29;20062;-77
2022/01/23 15:44:56;;;;;;;7.95;3.33;;;10.50;99.90;;;;;;4803937;29;20042;-76
2022/01/23 15:47:22;;;;;;;8.30;3.50;;;9.60;99.90;;;;;;4804588;29;20073;-78
2022/01/23 15:49:48;;;;;;;10.57;3.97;;;9.80;99.90;;;;;;4789227;29;20134;-77
2022/01/23 15:52:14;;;;;;;10.48;4.28;;;10.10;99.90;;;;;;4802577;29;20083;-77
2022/01/23 15:54:41;;;;;;;10.18;3.78;;;9.80;99.90;;;;;;4800792;29;20128;-77
2022/01/23 15:57:07;;;;;;;12.73;4.57;;;10.00;99.90;;;;;;4802825;29;20569;-77
2022/01/23 15:59:35;;;;;;;8.98;4.03;;;9.80;99.90;;;;;;4802409;29;20050;-77
2022/01/23 16:02:01;;;;;;;9.02;3.63;;;;;;;;;;4804263;29;20054;-77
2022/01/23 16:04:27;;;;;;;10.48;3.90;;;9.90;99.90;;;;;;4787856;29;20126;-76
2022/01/23 16:06:53;;;;;;;9.07;4.15;;;10.00;99.90;;;;;;4790611;29;20055;-77
2022/01/23 16:09:19;;;;;;;10.85;4.38;;;9.80;99.90;;;;;;4815778;29;20042;-78
2022/01/23 16:11:45;;;;;;;11.38;4.80;;;9.80;99.90;;;;;;4796132;29;20432;-81
2022/01/23 16:14:10;;;;;;;10.10;4.55;;;9.80;99.90;;;;;;4798349;29;20176;-76
2022/01/23 16:16:36;;;;;;;11.63;5.57;;;10.20;99.90;;;;;;4796221;29;20156;-77
2022/01/23 16:19:02;;;;;;;13.32;5.40;;;10.00;99.90;;;;;;4801132;29;20046;-77
2022/01/23 16:21:28;;;;;;;13.38;5.80;;;9.80;99.90;;;;;;4800455;29;20395;-78
2022/01/23 16:23:54;;;;;;;11.98;4.82;;;10.50;99.90;;;;;;4803899;29;20195;-77
2022/01/23 16:26:20;;;;;;;12.60;5.63;;;10.50;99.90;;;;;;4805650;29;20062;-77
2022/01/23 16:28:47;;;;;;;12.95;5.38;;;10.00;99.90;;;;;;4795258;29;20134;-77
2022/01/23 16:31:14;;;;;;;21.55;6.25;;;9.70;99.90;;;;;;4799545;29;20059;-77
2022/01/23 16:33:40;;;;;;;11.43;5.43;;;9.70;99.90;;;;;;4801150;29;20141;-77
2022/01/23 16:36:07;;;;;;;11.60;5.50;;;9.80;99.90;;;;;;4806220;29;20343;-80